• Join FlightAware (Why Join?)
  • Login
  • US Flag 
06:01PM EDT


 

Airport Tracker/Info


-or-


 

Live Flight TrackerFlight Track Log ✈ AFR7746 ✈ 24-Apr-2013 ✈ LFPG / CDG - LFSB / EAP

Flight Track Log - Related Links

Times and Time Zones

All times are in EDT time to prevent confusion due to time zone crossing. See the AFR7746 flight status page for this flight to view local times or setup timezone preferences in your user account.

Time Position Orientation Groundspeed Altitude Reporting Facility
EDT Latitude Longitude Course Direction KTS MPH feet Rate Location/Type
10:36AM 48.9901 2.6381 111° Southeast  Level Estimated
10:37AM 48.9674 2.7261 111° Southeast  Level Estimated
10:38AM 48.9446 2.8140 112° Southeast  Level Estimated
10:39AM 48.9217 2.9018 112° Southeast  Level Estimated
10:40AM 48.8988 2.9896 112° Southeast  Level Estimated
10:41AM 48.8758 3.0773 112° Southeast  Level Estimated
10:42AM 48.8528 3.1649 112° Southeast  Level Estimated
10:43AM 48.8297 3.2524 112° Southeast  Level Estimated
10:44AM 48.8065 3.3398 112° Southeast  Level Estimated
10:45AM 48.7832 3.4272 112° Southeast  Level Estimated
10:46AM 48.7599 3.5145 112° Southeast  Level Estimated
10:47AM 48.7365 3.6017 112° Southeast  Level Estimated
10:48AM 48.7131 3.6888 112° Southeast  Level Estimated
10:49AM 48.6895 3.7758 112° Southeast  Level Estimated
10:50AM 48.6660 3.8628 112° Southeast  Level Estimated
10:51AM 48.6423 3.9496 112° Southeast  Level Estimated
10:52AM 48.6186 4.0364 112° Southeast  Level Estimated
10:53AM 48.5948 4.1231 112° Southeast  Level Estimated
10:54AM 48.5710 4.2098 113° Southeast  Level Estimated
10:55AM 48.5471 4.2963 113° Southeast  Level Estimated
10:56AM 48.5231 4.3828 113° Southeast  Level Estimated
10:57AM 48.4991 4.4691 113° Southeast  Level Estimated
10:58AM 48.4749 4.5554 113° Southeast  Level Estimated
10:59AM 48.4508 4.6417 113° Southeast  Level Estimated
11:00AM 48.4266 4.7278 113° Southeast  Level Estimated
11:01AM 48.4022 4.8138 113° Southeast  Level Estimated
11:02AM 48.3779 4.8998 113° Southeast  Level Estimated
11:03AM 48.3535 4.9857 113° Southeast  Level Estimated
11:04AM 48.3345 5.0521 113° Southeast  Level Estimated
11:05AM 48.3156 5.1184 113° Southeast  Level Estimated
11:06AM 48.2966 5.1846 113° Southeast  Level Estimated
11:07AM 48.2775 5.2508 113° Southeast  Level Estimated
11:08AM 48.2584 5.3170 113° Southeast  Level Estimated
11:09AM 48.2393 5.3831 113° Southeast  Level Estimated
11:10AM 48.2201 5.4492 114° Southeast  Level Estimated
11:11AM 48.2010 5.5152 114° Southeast  Level Estimated
11:12AM 48.1817 5.5812 114° Southeast  Level Estimated
11:13AM 48.1624 5.6471 114° Southeast  Level Estimated
11:14AM 48.1431 5.7130 114° Southeast  Level Estimated
11:15AM 48.1238 5.7788 114° Southeast  Level Estimated
11:16AM 48.1044 5.8446 114° Southeast  Level Estimated
11:17AM 48.0850 5.9103 114° Southeast  Level Estimated
11:18AM 48.0655 5.9759 114° Southeast  Level Estimated
11:19AM 48.0460 6.0416 114° Southeast  Level Estimated
11:20AM 48.0265 6.1071 114° Southeast  Level Estimated
11:21AM 48.0069 6.1727 114° Southeast  Level Estimated
11:22AM 47.9873 6.2381 114° Southeast  Level Estimated
11:23AM 47.9676 6.3035 114° Southeast  Level Estimated
11:24AM 47.9479 6.3689 114° Southeast  Level Estimated
11:25AM 47.9282 6.4342 114° Southeast  Level Estimated
11:26AM 47.9085 6.4995 114° Southeast  Level Estimated
11:27AM 47.8887 6.5647 114° Southeast  Level Estimated
11:28AM 47.8688 6.6299 114° Southeast  Level Estimated
11:29AM 47.8490 6.6950 114° Southeast  Level Estimated
11:30AM 47.8291 6.7601 114° Southeast  Level Estimated
11:31AM 47.8091 6.8251 115° Southeast  Level Estimated
11:32AM 47.7891 6.8901 115° Southeast  Level Estimated
11:33AM 47.7691 6.9550 115° Southeast  Level Estimated
11:34AM 47.7491 7.0199 115° Southeast  Level Estimated
11:35AM 47.7290 7.0847 115° Southeast  Level Estimated
11:36AM 47.7089 7.1495 115° Southeast  Level Estimated
11:37AM 47.6887 7.2142 115° Southeast  Level Estimated
11:38AM 47.6685 7.2789 115° Southeast  Level Estimated
11:39AM 47.6483 7.3435 115° Southeast  Level Estimated
11:40AM 47.6280 7.4080 115° Southeast  Level Estimated
11:41AM 47.6077 7.4726 115° Southeast  Level Estimated
11:42AM 47.5896 7.5299 115° Southeast  Level Estimated
11:43AM 47.5896 7.5299 42° Northeast  Level Estimated
11:44AM 47.5896 7.5299 42° Northeast  Level Estimated
11:45AM 47.5896 7.5299 42° Northeast  Level Estimated
11:46AM 47.5896 7.5299 42° Northeast  Level Estimated
11:47AM 47.5896 7.5299 42° Northeast  Level Estimated
11:48AM 47.5896 7.5299 42° Northeast  Level Estimated
11:49AM 47.5896 7.5299 42° Northeast  Level Estimated
11:50AM 47.5896 7.5299 42° Northeast  Level Estimated
11:51AM 47.5896 7.5299 42° Northeast  Level Estimated
11:52AM 47.5896 7.5299 42° Northeast  Level Estimated
11:53AM 47.5896 7.5299 42° Northeast  Level Estimated
11:54AM 47.5896 7.5299 42° Northeast  Level Estimated
11:55AM 47.5896 7.5299 42° Northeast  Level Estimated
11:56AM 47.5896 7.5299 42° Northeast  Level Estimated